Time;durP1;ratioP1;P1;durP2;ratioP2;P2;SDS_P1;SDS_P2;PMS_P1;PMS_P2;Temp;Humidity;BMP_temperature;BMP_pressure;BME280_temperature;BME280_humidity;BME280_pressure;Samples;Min_cycle;Max_cycle;Signal;HPM_P1;HPM_P2
2022/04/07 00:01:20;;;;;;;0.70;0.20;;;16.60;52.60;;;;;;5091603;28;20075;-65
2022/04/07 00:03:46;;;;;;;0.50;0.10;;;16.60;52.60;;;;;;5092153;28;20510;-68
2022/04/07 00:06:12;;;;;;;2.30;0.20;;;16.50;52.50;;;;;;5092181;28;20040;-73
2022/04/07 00:08:38;;;;;;;0.98;0.20;;;16.50;52.60;;;;;;5091334;28;20035;-67
2022/04/07 00:11:04;;;;;;;0.60;0.20;;;16.50;52.60;;;;;;5091970;28;20063;-65
2022/04/07 00:13:30;;;;;;;0.68;0.20;;;16.50;52.60;;;;;;5090558;28;20476;-68
2022/04/07 00:15:58;;;;;;;1.70;0.13;;;16.50;52.60;;;;;;5090842;28;20433;-69
2022/04/07 00:18:23;;;;;;;1.00;0.20;;;16.50;52.60;;;;;;5090137;28;20100;-68
2022/04/07 00:20:50;;;;;;;1.50;0.20;;;16.50;52.70;;;;;;5091861;28;20036;-65
2022/04/07 00:23:16;;;;;;;0.60;0.10;;;16.50;52.60;;;;;;5091626;28;20032;-70
2022/04/07 00:25:42;;;;;;;0.70;0.20;;;16.50;52.70;;;;;;5089985;28;20441;-68
2022/04/07 00:28:10;;;;;;;1.00;0.20;;;16.50;52.70;;;;;;5090198;28;20040;-68
2022/04/07 00:30:37;;;;;;;1.42;0.40;;;16.60;52.80;;;;;;5090629;28;20694;-68
2022/04/07 00:33:04;;;;;;;0.90;0.20;;;16.50;52.70;;;;;;5091597;28;20048;-68
2022/04/07 00:35:30;;;;;;;1.08;0.20;;;16.50;52.70;;;;;;5092700;28;20365;-68
2022/04/07 00:37:55;;;;;;;1.35;0.20;;;16.50;52.70;;;;;;5092080;28;20047;-64
2022/04/07 00:40:21;;;;;;;1.63;0.20;;;16.50;52.70;;;;;;5090942;28;20040;-65
2022/04/07 00:42:48;;;;;;;1.13;0.30;;;16.50;52.70;;;;;;5090483;28;20130;-68
2022/04/07 00:45:15;;;;;;;0.45;0.20;;;16.50;52.70;;;;;;5091453;28;20078;-68
2022/04/07 00:47:42;;;;;;;0.45;0.20;;;16.50;52.70;;;;;;5090294;28;20123;-64
2022/04/07 00:50:10;;;;;;;0.60;0.40;;;16.40;52.70;;;;;;5091693;28;20173;-70
2022/04/07 00:52:40;;;;;;;1.00;0.20;;;16.40;52.80;;;;;;5091276;28;20080;-69
2022/04/07 00:55:06;;;;;;;0.93;0.20;;;16.40;52.80;;;;;;5090401;28;20123;-68
2022/04/07 00:57:32;;;;;;;1.38;0.50;;;16.40;52.80;;;;;;5089821;28;20059;-69
2022/04/07 00:59:58;;;;;;;1.88;0.20;;;16.40;52.80;;;;;;5091232;28;20479;-68
2022/04/07 01:02:23;;;;;;;1.15;0.20;;;16.40;52.80;;;;;;5090190;28;20076;-66
2022/04/07 01:04:49;;;;;;;0.50;0.22;;;16.40;52.80;;;;;;5091424;28;20040;-69
2022/04/07 01:07:15;;;;;;;0.88;0.20;;;16.40;52.80;;;;;;5090085;28;20093;-64
2022/04/07 01:09:41;;;;;;;0.70;0.20;;;16.40;52.80;;;;;;5091525;28;20032;-69
2022/04/07 01:12:07;;;;;;;1.25;0.20;;;16.40;52.80;;;;;;5090009;28;20486;-69
2022/04/07 01:14:32;;;;;;;1.20;0.30;;;16.40;52.80;;;;;;5091188;28;20487;-69
2022/04/07 01:17:01;;;;;;;0.82;0.20;;;16.40;52.80;;;;;;5091183;28;20056;-69
2022/04/07 01:19:27;;;;;;;0.85;0.20;;;16.40;52.90;;;;;;5090134;28;20051;-69
2022/04/07 01:21:52;;;;;;;0.82;0.20;;;16.40;52.90;;;;;;5090113;28;20036;-68
2022/04/07 01:24:27;;;;;;;0.75;0.20;;;16.40;52.90;;;;;;5089402;28;20070;-69
2022/04/07 01:26:53;;;;;;;0.60;0.10;;;16.40;53.00;;;;;;5090979;28;20066;-69
2022/04/07 01:29:25;;;;;;;2.00;0.40;;;16.40;52.90;;;;;;5073604;28;20075;-67
2022/04/07 01:31:51;;;;;;;1.50;0.40;;;16.30;52.90;;;;;;5089719;28;20044;-68
2022/04/07 01:34:18;;;;;;;1.08;0.20;;;16.30;52.90;;;;;;5090158;28;20040;-68
2022/04/07 01:36:47;;;;;;;1.85;0.40;;;16.30;52.90;;;;;;5090726;28;20097;-64
2022/04/07 01:39:18;;;;;;;0.85;0.30;;;16.30;53.00;;;;;;5089547;28;20032;-71
2022/04/07 01:41:44;;;;;;;2.40;0.30;;;16.30;52.90;;;;;;5089847;28;20105;-64
2022/04/07 01:44:13;;;;;;;0.90;0.20;;;16.30;52.90;;;;;;5089710;28;20048;-69
2022/04/07 01:46:39;;;;;;;2.72;0.40;;;16.30;53.00;;;;;;5089647;28;20065;-66
2022/04/07 01:49:07;;;;;;;0.70;0.20;;;16.30;52.90;;;;;;5090992;28;20105;-69
2022/04/07 01:51:35;;;;;;;1.23;0.38;;;16.30;52.90;;;;;;5089290;28;20496;-70
2022/04/07 01:54:01;;;;;;;1.75;0.20;;;16.30;52.90;;;;;;5089843;28;20039;-68
2022/04/07 01:56:30;;;;;;;0.80;0.25;;;16.30;53.00;;;;;;5089829;28;20119;-64
2022/04/07 01:58:59;;;;;;;0.63;0.40;;;16.30;53.00;;;;;;5090665;28;20044;-68
2022/04/07 02:01:24;;;;;;;0.43;0.10;;;16.40;53.00;;;;;;5094491;28;20094;-69
2022/04/07 02:03:50;;;;;;;0.40;0.10;;;16.60;52.80;;;;;;5092784;28;20071;-70
2022/04/07 02:06:17;;;;;;;0.82;0.20;;;16.70;52.50;;;;;;5092580;28;20047;-69
2022/04/07 02:08:44;;;;;;;1.33;0.10;;;17.00;52.10;;;;;;5093647;28;20054;-70
2022/04/07 02:11:11;;;;;;;0.88;0.20;;;17.20;51.80;;;;;;5094764;28;20086;-69
2022/04/07 02:13:38;;;;;;;0.60;0.10;;;17.40;51.10;;;;;;5093409;28;20500;-69
2022/04/07 02:16:05;;;;;;;1.60;0.30;;;17.70;50.60;;;;;;5093005;28;20048;-68
2022/04/07 02:18:31;;;;;;;0.70;0.10;;;17.90;50.10;;;;;;5093963;28;20047;-64
2022/04/07 02:20:56;;;;;;;0.50;0.10;;;18.10;49.70;;;;;;5094517;28;20028;-69
2022/04/07 02:23:23;;;;;;;1.15;0.20;;;18.30;49.40;;;;;;5092716;28;20454;-69
2022/04/07 02:25:49;;;;;;;1.73;0.20;;;18.40;49.10;;;;;;5093023;28;20044;-70
2022/04/07 02:28:14;;;;;;;0.85;0.50;;;18.40;48.80;;;;;;5092767;28;20383;-69
2022/04/07 02:30:40;;;;;;;1.73;0.10;;;18.40;48.60;;;;;;5093147;28;20036;-66
2022/04/07 02:33:06;;;;;;;2.08;0.20;;;18.50;48.50;;;;;;5094474;28;20089;-69
2022/04/07 02:35:32;;;;;;;1.35;0.20;;;18.60;48.40;;;;;;5093000;28;20117;-68
2022/04/07 02:38:01;;;;;;;0.93;0.15;;;18.50;48.30;;;;;;5093331;28;20036;-66
2022/04/07 02:40:26;;;;;;;0.90;0.10;;;18.50;48.20;;;;;;5092526;28;20040;-68
2022/04/07 02:42:52;;;;;;;1.05;0.10;;;18.50;48.20;;;;;;5092338;28;20403;-66
2022/04/07 02:45:18;;;;;;;0.85;0.30;;;18.50;48.20;;;;;;5092703;28;20044;-69
2022/04/07 02:47:43;;;;;;;0.98;0.17;;;18.40;48.20;;;;;;5093956;28;20127;-69
2022/04/07 02:50:09;;;;;;;1.80;0.28;;;18.40;48.20;;;;;;5094088;28;20051;-69
2022/04/07 02:52:35;;;;;;;1.20;0.10;;;18.30;48.30;;;;;;5093710;28;20048;-68
2022/04/07 02:55:02;;;;;;;2.30;0.20;;;18.30;48.40;;;;;;5075532;28;20044;-64
2022/04/07 02:57:31;;;;;;;1.45;0.22;;;18.20;48.40;;;;;;5075016;28;20085;-69
2022/04/07 02:59:58;;;;;;;1.95;0.20;;;18.10;48.60;;;;;;5092557;28;20039;-68
2022/04/07 03:02:25;;;;;;;1.52;0.20;;;18.10;48.80;;;;;;5093537;28;20131;-68
2022/04/07 03:04:50;;;;;;;1.90;0.20;;;17.90;48.90;;;;;;5075208;28;20115;-69
2022/04/07 03:07:16;;;;;;;1.25;0.20;;;17.90;49.20;;;;;;5074965;28;20131;-71
2022/04/07 03:09:42;;;;;;;1.40;0.20;;;17.80;50.00;;;;;;5075218;28;20040;-69
2022/04/07 03:12:09;;;;;;;1.85;0.32;;;17.70;49.40;;;;;;5075399;28;20059;-69
2022/04/07 03:14:34;;;;;;;1.45;0.20;;;17.60;49.60;;;;;;5093520;28;20082;-66
2022/04/07 03:17:00;;;;;;;1.60;0.20;;;17.60;49.80;;;;;;5074950;28;20059;-66
2022/04/07 03:19:26;;;;;;;1.00;0.40;;;17.60;50.00;;;;;;5074985;28;20076;-68
2022/04/07 03:21:51;;;;;;;0.93;0.30;;;17.50;50.10;;;;;;5075130;28;20047;-66
2022/04/07 03:24:17;;;;;;;1.80;0.20;;;17.40;50.20;;;;;;5075007;28;20036;-69
2022/04/07 03:26:43;;;;;;;2.08;0.20;;;17.40;50.40;;;;;;5092602;28;20048;-69
2022/04/07 03:29:11;;;;;;;2.10;0.45;;;17.30;50.50;;;;;;5074777;28;20170;-68
2022/04/07 03:31:37;;;;;;;2.35;0.30;;;17.30;51.40;;;;;;5075031;28;20044;-66
2022/04/07 03:34:02;;;;;;;1.40;0.20;;;17.20;50.70;;;;;;5075110;28;20062;-68
2022/04/07 03:36:28;;;;;;;1.23;0.40;;;17.20;50.80;;;;;;5093012;28;20035;-68
2022/04/07 03:38:54;;;;;;;1.77;0.30;;;17.20;50.90;;;;;;5092259;28;20051;-68
2022/04/07 03:41:20;;;;;;;2.88;0.30;;;17.10;50.90;;;;;;5074108;28;20127;-73
2022/04/07 03:43:45;;;;;;;2.83;0.30;;;17.20;51.00;;;;;;5074243;28;20090;-69
2022/04/07 03:46:15;;;;;;;2.17;0.20;;;17.20;51.00;;;;;;5073717;28;20462;-65
2022/04/07 03:48:41;;;;;;;3.65;0.20;;;17.20;51.10;;;;;;5073997;28;20040;-65
2022/04/07 03:51:07;;;;;;;1.50;0.20;;;17.10;51.00;;;;;;5091872;28;20058;-67
2022/04/07 03:53:33;;;;;;;1.73;0.20;;;17.20;51.10;;;;;;5074284;28;20058;-68
2022/04/07 03:55:58;;;;;;;1.98;0.65;;;17.10;51.10;;;;;;5074190;28;20047;-66
2022/04/07 03:58:26;;;;;;;1.63;0.20;;;17.10;51.10;;;;;;5091438;28;20047;-70
2022/04/07 04:00:52;;;;;;;1.77;0.20;;;17.10;51.20;;;;;;5074141;28;20048;-69
2022/04/07 04:03:18;;;;;;;1.83;0.30;;;17.00;51.10;;;;;;5073387;28;20048;-69
2022/04/07 04:05:44;;;;;;;2.78;0.50;;;17.10;51.30;;;;;;5073953;28;20040;-68
2022/04/07 04:08:09;;;;;;;1.00;0.25;;;17.00;51.20;;;;;;5073989;28;20046;-68
2022/04/07 04:10:35;;;;;;;2.20;0.20;;;17.00;51.20;;;;;;5092494;28;20032;-69
2022/04/07 04:13:01;;;;;;;1.60;0.20;;;17.00;51.30;;;;;;5074332;28;20067;-68
2022/04/07 04:15:26;;;;;;;2.25;0.40;;;17.00;51.30;;;;;;5074681;28;20154;-67
2022/04/07 04:17:52;;;;;;;2.50;0.40;;;17.00;51.30;;;;;;5073574;28;20395;-68
2022/04/07 04:20:17;;;;;;;4.30;0.70;;;17.00;51.30;;;;;;5073559;28;20036;-69
2022/04/07 04:22:43;;;;;;;2.45;0.30;;;16.90;51.30;;;;;;5073274;28;20548;-65
2022/04/07 04:25:09;;;;;;;1.83;0.35;;;16.90;51.40;;;;;;5091627;28;20593;-66
2022/04/07 04:27:34;;;;;;;1.90;0.20;;;16.90;51.40;;;;;;5073542;28;20032;-68
2022/04/07 04:30:00;;;;;;;2.83;0.30;;;16.90;51.50;;;;;;5092014;28;20418;-65
2022/04/07 04:32:26;;;;;;;4.10;1.02;;;16.80;51.40;;;;;;5073961;28;20127;-68
2022/04/07 04:34:52;;;;;;;2.95;0.32;;;16.80;51.50;;;;;;5074285;28;20467;-68
2022/04/07 04:37:18;;;;;;;4.40;0.93;;;16.80;51.50;;;;;;5073773;28;20472;-65
2022/04/07 04:39:43;;;;;;;1.80;0.35;;;16.80;51.50;;;;;;5073713;28;20040;-67
2022/04/07 04:42:09;;;;;;;2.45;0.30;;;16.80;51.60;;;;;;5073472;28;20498;-69
2022/04/07 04:44:34;;;;;;;2.45;0.52;;;16.80;51.60;;;;;;5073172;28;20400;-69
2022/04/07 04:47:00;;;;;;;3.13;0.50;;;16.80;51.60;;;;;;5073414;28;20063;-69
2022/04/07 04:49:26;;;;;;;1.50;0.30;;;16.80;51.60;;;;;;5091614;28;20076;-68
2022/04/07 04:51:52;;;;;;;3.75;0.65;;;16.80;51.60;;;;;;5073523;28;20059;-64
2022/04/07 04:54:18;;;;;;;3.22;0.35;;;16.80;51.60;;;;;;5073697;28;20044;-68
2022/04/07 04:56:44;;;;;;;2.00;0.30;;;16.80;51.60;;;;;;5091722;28;20040;-68
2022/04/07 04:59:09;;;;;;;2.30;0.40;;;16.70;51.60;;;;;;5073111;28;20055;-68
2022/04/07 05:01:35;;;;;;;2.38;0.45;;;16.80;51.70;;;;;;5091472;28;20445;-68
2022/04/07 05:04:01;;;;;;;2.85;0.40;;;16.70;51.60;;;;;;5090948;28;20044;-68
2022/04/07 05:06:26;;;;;;;3.03;0.70;;;16.70;51.60;;;;;;5072823;28;20047;-69
2022/04/07 05:08:52;;;;;;;3.08;0.75;;;16.70;51.70;;;;;;5072829;28;20028;-68
2022/04/07 05:11:18;;;;;;;3.35;0.60;;;16.70;51.70;;;;;;5073145;28;20137;-68
2022/04/07 05:13:47;;;;;;;3.25;0.70;;;16.70;51.70;;;;;;5091306;28;20036;-69
2022/04/07 05:16:15;;;;;;;3.67;0.43;;;16.70;51.70;;;;;;5073314;28;20036;-65
2022/04/07 05:18:46;;;;;;;2.97;0.50;;;16.70;51.80;;;;;;5072817;28;20051;-68
2022/04/07 05:21:14;;;;;;;3.15;0.90;;;16.70;51.80;;;;;;5091136;28;20039;-71
2022/04/07 05:23:40;;;;;;;3.45;0.55;;;16.70;51.80;;;;;;5072991;28;20152;-68
2022/04/07 05:26:05;;;;;;;3.63;0.70;;;16.70;51.80;;;;;;5072686;28;20044;-70
2022/04/07 05:28:31;;;;;;;2.63;0.50;;;16.70;51.80;;;;;;5072531;28;20047;-69
2022/04/07 05:30:56;;;;;;;3.58;0.77;;;16.70;51.90;;;;;;5073423;28;20040;-69
2022/04/07 05:33:22;;;;;;;3.33;0.90;;;16.70;51.90;;;;;;5073327;28;20424;-69
2022/04/07 05:35:48;;;;;;;3.83;0.73;;;16.70;51.90;;;;;;5076813;28;20089;-70
2022/04/07 05:38:14;;;;;;;2.80;0.73;;;16.60;51.90;;;;;;5093238;28;20048;-68
2022/04/07 05:40:40;;;;;;;3.13;0.40;;;16.60;51.90;;;;;;5076829;28;20042;-68
2022/04/07 05:43:06;;;;;;;2.63;0.35;;;16.60;52.00;;;;;;5076668;28;20044;-66
2022/04/07 05:45:31;;;;;;;4.07;0.52;;;16.60;52.00;;;;;;5076617;28;20073;-68
2022/04/07 05:47:57;;;;;;;3.65;0.45;;;16.60;52.00;;;;;;5076617;28;20102;-68
2022/04/07 05:50:23;;;;;;;2.35;0.32;;;16.60;52.00;;;;;;5076155;28;20554;-69
2022/04/07 05:52:48;;;;;;;3.45;0.50;;;16.60;52.10;;;;;;5094139;28;20059;-69
2022/04/07 05:55:17;;;;;;;3.42;0.40;;;16.60;52.10;;;;;;5062013;28;20068;-68
2022/04/07 05:57:43;;;;;;;4.45;0.50;;;16.60;52.20;;;;;;5075133;28;20048;-69
2022/04/07 06:00:12;;;;;;;1.50;0.28;;;16.60;52.20;;;;;;5071645;28;20068;-69
2022/04/07 06:02:38;;;;;;;2.35;0.30;;;16.60;52.20;;;;;;5054956;28;20562;-69
2022/04/07 06:05:06;;;;;;;1.52;0.75;;;16.60;52.00;;;;;;5053630;28;20044;-70
2022/04/07 06:07:31;;;;;;;1.92;0.30;;;16.60;51.70;;;;;;5052279;28;20843;-70
2022/04/07 06:10:00;;;;;;;1.80;0.30;;;16.50;51.50;;;;;;5052337;28;20036;-70
2022/04/07 06:12:26;;;;;;;3.05;0.30;;;16.50;51.50;;;;;;5044402;28;20048;-67
2022/04/07 06:14:51;;;;;;;1.98;0.28;;;16.50;51.50;;;;;;5049646;28;20051;-70
2022/04/07 06:17:17;;;;;;;2.33;0.30;;;16.50;51.40;;;;;;5045216;28;20024;-66
2022/04/07 06:19:43;;;;;;;2.13;0.30;;;16.50;51.40;;;;;;5045960;28;20033;-69
2022/04/07 06:22:11;;;;;;;2.58;0.20;;;16.40;51.30;;;;;;5066481;28;20044;-67
2022/04/07 06:24:37;;;;;;;1.92;0.28;;;16.50;51.50;;;;;;5049865;28;20095;-68
2022/04/07 06:27:03;;;;;;;1.02;0.20;;;16.40;51.40;;;;;;5067368;28;20065;-69
2022/04/07 06:29:28;;;;;;;2.75;0.40;;;16.40;51.30;;;;;;5088114;28;20480;-66
2022/04/07 06:31:54;;;;;;;2.63;0.73;;;16.40;51.40;;;;;;5054565;28;20206;-69
2022/04/07 06:34:21;;;;;;;1.42;0.22;;;16.40;51.40;;;;;;5046051;28;20041;-70
2022/04/07 06:36:47;;;;;;;1.55;0.30;;;16.40;51.40;;;;;;5047459;28;20074;-66
2022/04/07 06:39:13;;;;;;;1.00;0.20;;;16.40;51.50;;;;;;5045062;28;20040;-70
2022/04/07 06:41:42;;;;;;;2.40;0.20;;;16.40;51.50;;;;;;5063616;28;20049;-69
2022/04/07 06:44:07;;;;;;;1.55;0.28;;;16.40;51.50;;;;;;5041528;28;20128;-66
2022/04/07 06:46:33;;;;;;;1.73;0.25;;;16.40;51.40;;;;;;5039342;28;20099;-69
2022/04/07 06:49:00;;;;;;;2.53;0.40;;;16.40;51.40;;;;;;5035821;28;20052;-68
2022/04/07 06:51:27;;;;;;;1.70;0.20;;;16.40;51.40;;;;;;5048993;28;20359;-67
2022/04/07 06:53:53;;;;;;;1.02;0.20;;;16.40;51.30;;;;;;5061477;28;20036;-69
2022/04/07 06:56:19;;;;;;;1.35;0.20;;;16.40;51.20;;;;;;5062595;28;20119;-68
2022/04/07 06:58:44;;;;;;;1.25;0.10;;;16.30;51.20;;;;;;5067765;28;20044;-68
2022/04/07 07:01:10;;;;;;;0.93;0.20;;;16.30;51.10;;;;;;5060626;28;20067;-70
2022/04/07 07:03:36;;;;;;;1.15;0.13;;;16.30;51.10;;;;;;5076225;28;20028;-68
2022/04/07 07:06:01;;;;;;;0.60;0.10;;;16.30;51.00;;;;;;5065397;28;20086;-69
2022/04/07 07:08:27;;;;;;;1.70;0.20;;;16.20;50.90;;;;;;5081982;28;20032;-68
2022/04/07 07:10:53;;;;;;;0.85;0.10;;;16.20;50.80;;;;;;5073057;28;20046;-69
2022/04/07 07:13:21;;;;;;;0.98;0.10;;;16.20;50.80;;;;;;5060579;28;20048;-68
2022/04/07 07:15:47;;;;;;;1.30;0.15;;;16.20;50.90;;;;;;5064437;28;20162;-70
2022/04/07 07:18:13;;;;;;;1.30;0.10;;;16.10;50.80;;;;;;5076407;28;20032;-69
2022/04/07 07:20:39;;;;;;;0.93;0.10;;;16.10;50.70;;;;;;5066218;28;20031;-69
2022/04/07 07:23:07;;;;;;;1.02;0.20;;;16.20;50.80;;;;;;5062996;28;20033;-70
2022/04/07 07:25:33;;;;;;;1.42;0.20;;;16.10;50.80;;;;;;5060517;28;20127;-70
2022/04/07 07:28:00;;;;;;;1.20;0.20;;;16.10;50.80;;;;;;5061825;28;20470;-70
2022/04/07 07:30:26;;;;;;;1.50;0.10;;;16.10;50.80;;;;;;5057900;28;20199;-73
2022/04/07 07:32:53;;;;;;;0.60;0.10;;;16.10;50.80;;;;;;5059191;28;20047;-68
2022/04/07 07:35:20;;;;;;;1.10;0.10;;;16.10;50.80;;;;;;5060648;28;20047;-67
2022/04/07 07:37:50;;;;;;;0.45;0.10;;;16.10;50.80;;;;;;5057744;28;20139;-67
2022/04/07 07:40:17;;;;;;;0.47;0.10;;;16.10;50.80;;;;;;5060434;28;20052;-69
2022/04/07 07:42:43;;;;;;;1.48;0.30;;;16.10;51.50;;;;;;5062329;28;20516;-68
2022/04/07 07:45:09;;;;;;;0.80;0.10;;;16.10;50.70;;;;;;5073670;28;20040;-67
2022/04/07 07:47:35;;;;;;;2.10;0.30;;;16.10;50.70;;;;;;5074151;28;20042;-67
2022/04/07 07:50:03;;;;;;;1.75;0.20;;;16.10;50.70;;;;;;5073853;28;20048;-68
2022/04/07 07:52:28;;;;;;;1.02;0.10;;;16.10;50.70;;;;;;5057010;28;20044;-64
2022/04/07 07:54:54;;;;;;;0.93;0.10;;;16.10;50.60;;;;;;5072432;28;20092;-71
2022/04/07 07:57:20;;;;;;;0.50;0.10;;;16.10;50.60;;;;;;5054822;28;20036;-70
2022/04/07 07:59:45;;;;;;;1.50;0.30;;;16.10;50.60;;;;;;5063091;28;20036;-69
2022/04/07 08:02:11;;;;;;;1.00;0.15;;;16.10;50.60;;;;;;5057610;28;20547;-69
2022/04/07 08:04:37;;;;;;;0.63;0.10;;;16.10;50.70;;;;;;5056586;28;20966;-70
2022/04/07 08:07:03;;;;;;;0.75;0.10;;;16.10;50.60;;;;;;5072940;28;20032;-67
2022/04/07 08:09:29;;;;;;;1.40;0.10;;;16.10;50.60;;;;;;5058135;28;20051;-69
2022/04/07 08:11:55;;;;;;;1.02;0.10;;;16.10;50.60;;;;;;5072069;28;20230;-71
2022/04/07 08:14:21;;;;;;;1.33;0.10;;;16.00;50.60;;;;;;5074708;28;20651;-70
2022/04/07 08:16:46;;;;;;;0.65;0.10;;;16.10;50.60;;;;;;5051142;28;20028;-68
2022/04/07 08:19:12;;;;;;;1.75;0.10;;;16.10;50.50;;;;;;5077918;28;20036;-70
2022/04/07 08:21:38;;;;;;;0.65;0.10;;;16.10;50.50;;;;;;5056795;28;20048;-69
2022/04/07 08:24:04;;;;;;;0.50;0.10;;;16.10;50.50;;;;;;5075778;28;20059;-69
2022/04/07 08:26:30;;;;;;;1.38;0.10;;;16.10;50.40;;;;;;5056898;28;20123;-69
2022/04/07 08:28:55;;;;;;;1.30;0.20;;;16.10;50.40;;;;;;5057901;28;20122;-69
2022/04/07 08:31:21;;;;;;;0.38;0.10;;;16.10;50.30;;;;;;5057023;28;20032;-69
2022/04/07 08:33:47;;;;;;;0.63;0.10;;;16.10;50.30;;;;;;5077604;28;20415;-70
2022/04/07 08:36:12;;;;;;;1.23;0.20;;;16.10;50.30;;;;;;5080951;28;20442;-69
2022/04/07 08:38:38;;;;;;;0.55;0.10;;;16.10;50.30;;;;;;5063113;28;20059;-69
2022/04/07 08:41:08;;;;;;;1.63;0.38;;;16.20;50.20;;;;;;5059472;28;20052;-68
2022/04/07 08:43:38;;;;;;;0.40;0.10;;;16.10;50.10;;;;;;5046409;28;20052;-68
2022/04/07 08:46:06;;;;;;;2.03;0.20;;;16.30;50.10;;;;;;5060825;28;20058;-69
2022/04/07 08:48:34;;;;;;;1.08;0.10;;;16.30;50.00;;;;;;5053630;28;20375;-68
2022/04/07 08:51:00;;;;;;;0.52;0.10;;;16.30;50.10;;;;;;5056447;28;20574;-68
2022/04/07 08:53:26;;;;;;;0.63;0.10;;;16.30;50.10;;;;;;5069530;28;20450;-67
2022/04/07 08:55:52;;;;;;;1.17;0.10;;;16.30;50.10;;;;;;5050375;28;20040;-68
2022/04/07 08:58:18;;;;;;;0.40;0.10;;;16.30;50.10;;;;;;5049844;28;20043;-70
2022/04/07 09:00:44;;;;;;;1.85;0.20;;;16.40;50.10;;;;;;5057778;28;20033;-67
2022/04/07 09:03:10;;;;;;;0.60;0.10;;;16.40;50.10;;;;;;5053294;28;20074;-69
2022/04/07 09:05:50;;;;;;;2.38;0.15;;;16.40;50.10;;;;;;5064181;28;20133;-69
2022/04/07 09:08:18;;;;;;;0.85;0.10;;;16.40;50.10;;;;;;5058476;28;20510;-68
2022/04/07 09:10:52;;;;;;;0.68;0.10;;;16.40;50.10;;;;;;5067447;28;20104;-68
2022/04/07 09:13:18;;;;;;;1.60;0.10;;;16.40;50.10;;;;;;5065960;28;20088;-66
2022/04/07 09:15:45;;;;;;;1.27;0.17;;;16.50;50.10;;;;;;5075179;28;20368;-70
2022/04/07 09:18:11;;;;;;;0.70;0.13;;;16.40;50.00;;;;;;5074508;28;20376;-70
2022/04/07 09:20:42;;;;;;;1.65;0.10;;;16.50;50.10;;;;;;5062650;28;20127;-70
2022/04/07 09:23:11;;;;;;;1.35;0.30;;;16.50;50.00;;;;;;5055291;28;20039;-69
2022/04/07 09:25:43;;;;;;;0.25;0.03;;;16.50;50.00;;;;;;5051627;28;20049;-70
2022/04/07 09:28:11;;;;;;;1.35;0.13;;;16.50;50.00;;;;;;5053579;28;20328;-69
2022/04/07 09:30:38;;;;;;;0.93;0.15;;;16.50;49.90;;;;;;5060348;28;20361;-70
2022/04/07 09:33:03;;;;;;;0.32;0.20;;;16.60;49.80;;;;;;5055310;28;20079;-70
2022/04/07 09:35:29;;;;;;;2.47;0.10;;;16.60;49.80;;;;;;5053225;28;20170;-67
2022/04/07 09:38:01;;;;;;;0.65;0.20;;;16.70;49.60;;;;;;5071102;28;20569;-66
2022/04/07 09:40:27;;;;;;;1.20;0.10;;;16.70;49.40;;;;;;5062203;28;20400;-70
2022/04/07 09:42:59;;;;;;;1.17;0.40;;;16.80;49.30;;;;;;5075891;28;20072;-67
2022/04/07 09:45:27;;;;;;;0.40;0.10;;;16.90;49.20;;;;;;5059800;28;20044;-70
2022/04/07 09:47:54;;;;;;;1.13;0.20;;;16.90;48.90;;;;;;5067337;28;20071;-69
2022/04/07 09:53:03;;;;;;;1.27;0.10;;;17.00;48.70;;;;;;5086762;27;20477;-69
2022/04/07 09:55:34;;;;;;;0.47;0.10;;;17.20;48.30;;;;;;5050544;28;20106;-67
2022/04/07 09:58:03;;;;;;;2.05;0.10;;;17.20;48.10;;;;;;5087303;28;20717;-67
2022/04/07 10:00:29;;;;;;;1.70;0.10;;;17.20;47.90;;;;;;5059117;28;20954;-66
2022/04/07 10:02:56;;;;;;;2.38;0.63;;;17.20;47.90;;;;;;5052311;28;20105;-70
2022/04/07 10:05:23;;;;;;;0.47;0.20;;;17.30;47.90;;;;;;5059292;28;20660;-69
2022/04/07 10:07:50;;;;;;;1.92;0.43;;;17.30;47.80;;;;;;5058338;28;20127;-69
2022/04/07 10:10:18;;;;;;;1.65;0.20;;;17.30;47.70;;;;;;5068110;28;20036;-69
2022/04/07 10:12:47;;;;;;;1.27;0.20;;;17.30;47.80;;;;;;5060528;28;20051;-66
2022/04/07 10:15:16;;;;;;;2.42;0.20;;;17.20;47.70;;;;;;5075330;28;20323;-71
2022/04/07 10:17:43;;;;;;;1.27;0.25;;;17.20;47.80;;;;;;5056645;28;20263;-66
2022/04/07 10:20:12;;;;;;;1.25;0.20;;;17.20;47.90;;;;;;5090764;28;20047;-70
2022/04/07 10:25:37;;;;;;;1.60;0.10;;;17.20;48.00;;;;;;5090460;27;20372;-71
2022/04/07 10:28:04;;;;;;;2.33;0.30;;;17.10;48.10;;;;;;5054643;28;20044;-68
2022/04/07 10:30:30;;;;;;;0.85;0.10;;;17.20;48.20;;;;;;5063156;28;20036;-69
2022/04/07 10:32:58;;;;;;;1.20;0.10;;;17.20;48.10;;;;;;5057818;28;20044;-66
2022/04/07 10:38:31;;;;;;;1.75;0.40;;;17.30;48.00;;;;;;5087717;27;20332;-69
2022/04/07 10:41:01;;;;;;;2.05;0.20;;;17.50;47.60;;;;;;5078217;28;20098;-71
2022/04/07 10:43:27;;;;;;;1.48;0.20;;;17.60;47.40;;;;;;5057578;28;20041;-70
2022/04/07 10:46:08;;;;;;;1.85;0.20;;;17.60;47.10;;;;;;5073167;28;20539;-71
2022/04/07 10:48:48;;;;;;;3.17;0.20;;;17.70;46.90;;;;;;5044151;28;20037;-70
2022/04/07 10:51:14;;;;;;;2.10;0.20;;;17.70;46.60;;;;;;5065853;28;20875;-69
2022/04/07 10:56:33;;;;;;;2.72;0.50;;;17.70;46.40;;;;;;5026358;28;20464;-70
2022/04/07 10:59:19;;;;;;;2.90;0.35;;;17.70;46.20;;;;;;5030813;28;20045;-71
2022/04/07 11:12:32;;;;;;;1.95;0.28;;;17.60;46.30;;;;;;5105733;27;21041;-66
2022/04/07 11:15:24;;;;;;;2.28;0.50;;;17.50;46.20;;;;;;5113025;27;20049;-71
2022/04/07 11:17:56;;;;;;;1.75;0.20;;;17.50;46.40;;;;;;5084437;28;20040;-72
2022/04/07 11:23:06;;;;;;;3.63;0.30;;;17.50;46.30;;;;;;5065424;28;20576;-66
2022/04/07 11:28:17;;;;;;;3.20;0.40;;;17.60;46.10;;;;;;5089815;27;20444;-71
2022/04/07 11:38:52;;;;;;;1.85;0.40;;;17.60;46.10;;;;;;5107392;27;1163748;-66
2022/04/07 11:41:19;;;;;;;3.95;0.68;;;17.60;45.90;;;;;;5144614;27;20046;-72
2022/04/07 11:43:47;;;;;;;2.33;0.30;;;17.60;45.90;;;;;;5125187;27;20095;-66
2022/04/07 11:46:14;;;;;;;2.97;0.40;;;17.60;45.90;;;;;;5119304;27;20314;-71
2022/04/07 11:48:40;;;;;;;3.72;0.30;;;17.60;45.90;;;;;;5121216;27;20140;-70
2022/04/07 11:51:14;;;;;;;2.25;0.40;;;17.60;45.80;;;;;;5129099;27;20070;-69
2022/04/07 11:53:41;;;;;;;5.13;0.50;;;17.60;45.80;;;;;;5144461;27;20066;-71
2022/04/07 11:56:17;;;;;;;2.47;0.32;;;17.60;45.70;;;;;;5148893;27;20609;-66
2022/04/07 11:58:44;;;;;;;2.17;0.30;;;17.60;45.70;;;;;;5136617;27;20436;-69
2022/04/07 12:01:13;;;;;;;3.60;0.40;;;17.60;45.60;;;;;;5133607;27;20477;-70
2022/04/07 12:03:39;;;;;;;2.75;0.40;;;17.60;45.60;;;;;;5133580;27;20041;-69
2022/04/07 12:06:04;;;;;;;3.40;0.45;;;17.60;45.60;;;;;;5132448;27;20038;-70
2022/04/07 12:08:31;;;;;;;2.30;0.30;;;17.60;45.50;;;;;;5127236;27;20486;-72
2022/04/07 12:10:58;;;;;;;3.65;0.55;;;17.70;45.50;;;;;;5131113;27;20087;-69
2022/04/07 12:13:24;;;;;;;4.28;0.50;;;17.60;45.40;;;;;;5130774;27;20066;-70
2022/04/07 12:15:50;;;;;;;2.05;0.40;;;17.60;45.40;;;;;;5132764;27;20050;-70
2022/04/07 12:18:25;;;;;;;2.45;0.50;;;17.60;45.40;;;;;;5126708;27;20061;-70
2022/04/07 12:20:58;;;;;;;2.92;0.47;;;17.60;45.50;;;;;;5123593;27;20034;-71
2022/04/07 12:23:27;;;;;;;2.25;0.38;;;17.50;45.50;;;;;;5122957;27;20047;-64
2022/04/07 12:25:58;;;;;;;3.08;0.60;;;17.60;45.60;;;;;;5126418;27;20393;-71
2022/04/07 12:28:33;;;;;;;2.42;0.40;;;17.50;45.50;;;;;;5122968;27;20046;-66
2022/04/07 12:30:59;;;;;;;3.53;0.60;;;17.60;45.40;;;;;;5122794;27;20042;-70
2022/04/07 12:33:46;;;;;;;3.08;0.40;;;17.60;45.30;;;;;;5148702;27;20073;-71
2022/04/07 12:36:14;;;;;;;4.78;0.55;;;17.70;45.20;;;;;;5130628;27;20485;-71
2022/04/07 12:38:41;;;;;;;2.85;0.50;;;17.70;45.20;;;;;;5134583;27;20074;-70
2022/04/07 12:41:10;;;;;;;3.28;0.50;;;17.70;45.30;;;;;;5147436;27;20082;-70
2022/04/07 12:43:51;;;;;;;2.10;0.30;;;17.60;45.30;;;;;;5126396;27;20044;-72
2022/04/07 12:46:19;;;;;;;3.03;0.50;;;17.70;45.30;;;;;;5147817;27;20046;-72
2022/04/07 12:49:06;;;;;;;5.20;0.47;;;17.60;45.30;;;;;;5123832;27;20051;-72
2022/04/07 12:51:34;;;;;;;4.32;0.50;;;17.70;45.00;;;;;;5113864;27;20039;-68
2022/04/07 12:54:15;;;;;;;4.03;0.77;;;17.70;45.00;;;;;;5118297;27;20171;-73
2022/04/07 12:56:42;;;;;;;2.75;0.32;;;17.70;45.00;;;;;;5115722;27;20038;-71
2022/04/07 12:59:11;;;;;;;2.72;0.60;;;17.60;44.80;;;;;;5107103;27;20677;-72
2022/04/07 13:01:39;;;;;;;2.08;0.60;;;17.70;44.90;;;;;;5106407;27;20043;-72
2022/04/07 13:04:08;;;;;;;3.15;0.40;;;17.70;44.90;;;;;;5118519;27;20069;-72
2022/04/07 13:06:34;;;;;;;3.05;0.50;;;17.80;45.10;;;;;;5139894;27;20050;-72
2022/04/07 13:09:00;;;;;;;4.95;0.73;;;17.70;45.20;;;;;;5108917;27;20697;-72
2022/04/07 13:14:11;;;;;;;3.60;0.32;;;17.70;45.00;;;;;;5098246;27;20419;-67
2022/04/07 13:16:38;;;;;;;2.95;0.40;;;17.60;44.80;;;;;;5074143;28;20709;-72
2022/04/07 13:19:05;;;;;;;2.30;0.65;;;17.60;45.10;;;;;;5063268;28;20044;-65
2022/04/07 13:21:33;;;;;;;3.17;0.50;;;17.50;45.30;;;;;;5068743;28;20043;-72
2022/04/07 13:23:59;;;;;;;2.80;0.70;;;17.50;45.50;;;;;;5066846;28;20676;-72
2022/04/07 13:26:25;;;;;;;2.95;0.30;;;17.50;45.60;;;;;;5063482;28;20040;-72